Bostwick, Georgia
Current Conditions -  °F | °C
As of 6:51 PM on Friday 28 Nov 2014 (Local Time) from KAHN Reporting Station
Clear Clear  
Wind Chill: 38°   Ceiling: Unl
Heat Index: 38°   Visibility: 10mi
Dew Point: 24°   Wind: 0mph
Humidity: 57%   Direction: NA
Pressure: 30.29"   Gusts: NA
Location:  33.74°N, 83.51°W
Report Text: KAHN 282351Z 00000KT 10SM CLR 03/M04 A3029 RMK AO2 SLP265 T00331044 10094 20028 55001
Loading
Personal Weather Stations






























Interactive Weather Map New forecast layout! Learn more

10-Day Weather Forecast

Advertisements
Track Severe Weather on mobile